Time;durP1;ratioP1;P1;durP2;ratioP2;P2;SDS_P1;SDS_P2;PMS_P1;PMS_P2;Temp;Humidity;BMP_temperature;BMP_pressure;BME280_temperature;BME280_humidity;BME280_pressure;Samples;Min_cycle;Max_cycle;Signal;HPM_P1;HPM_P2
2023/10/27 00:01:08;;;;;;;;;;;;;;;10.41;100.00;99321.53;5077853;27;19920;-73
2023/10/27 00:03:33;;;;;;;;;;;;;;;10.35;100.00;99318.44;5076189;27;19920;-73
2023/10/27 00:05:59;;;;;;;;;;;;;;;10.43;100.00;99312.41;5080632;27;19931;-73
2023/10/27 00:08:24;;;;;;;;;;;;;;;10.47;100.00;99311.19;5096661;27;19927;-73
2023/10/27 00:10:50;;;;;;;;;;;;;;;10.46;100.00;99306.81;5094947;27;19920;-72
2023/10/27 00:13:15;;;;;;;;;;;;;;;10.61;100.00;99301.97;5085385;27;20058;-73
2023/10/27 00:15:40;;;;;;;;;;;;;;;10.57;100.00;99303.22;5106877;27;19927;-73
2023/10/27 00:18:06;;;;;;;;;;;;;;;10.62;100.00;99298.31;5097095;27;19976;-73
2023/10/27 00:20:32;;;;;;;;;;;;;;;10.71;100.00;99291.34;5065898;27;19920;-73
2023/10/27 00:22:57;;;;;;;;;;;;;;;10.66;100.00;99288.25;5093750;27;20931;-72
2023/10/27 00:25:23;;;;;;;;;;;;;;;10.60;100.00;99284.31;5081699;27;20053;-73
2023/10/27 00:27:48;;;;;;;;;;;;;;;10.63;100.00;99286.69;5080773;27;20008;-73
2023/10/27 00:30:13;;;;;;;;;;;;;;;10.50;100.00;99278.94;5082187;27;20048;-73
2023/10/27 00:32:40;;;;;;;;;;;;;;;10.67;100.00;99284.59;5095217;27;19928;-73
2023/10/27 00:35:05;;;;;;;;;;;;;;;10.56;100.00;99275.72;5093650;27;19969;-73
2023/10/27 00:37:34;;;;;;;;;;;;;;;10.62;100.00;99280.50;5096519;27;20854;-73
2023/10/27 00:40:00;;;;;;;;;;;;;;;10.57;100.00;99274.75;5098284;27;19927;-73
2023/10/27 00:42:26;;;;;;;;;;;;;;;10.70;100.00;99279.00;5080839;27;20030;-73
2023/10/27 00:44:51;;;;;;;;;;;;;;;10.58;100.00;99273.75;5102720;27;19920;-72
2023/10/27 00:47:16;;;;;;;;;;;;;;;10.49;100.00;99274.59;5094715;27;19936;-72
2023/10/27 00:49:45;;;;;;;;;;;;;;;10.60;100.00;99284.31;5098941;27;19920;-72
2023/10/27 00:52:14;;;;;;;;;;;;;;;10.61;100.00;99281.50;5106060;27;19963;-73
2023/10/27 00:54:41;;;;;;;;;;;;;;;10.63;100.00;99284.00;5092890;27;20048;-73
2023/10/27 00:57:06;;;;;;;;;;;;;;;10.67;100.00;99288.09;5073732;27;20037;-72
2023/10/27 00:59:32;;;;;;;;;;;;;;;10.56;100.00;99275.72;5086738;27;19920;-73
2023/10/27 01:01:58;;;;;;;;;;;;;;;10.63;100.00;99274.19;5094840;27;19970;-73
2023/10/27 01:04:24;;;;;;;;;;;;;;;10.75;100.00;99279.44;5102895;27;20010;-73
2023/10/27 01:06:50;;;;;;;;;;;;;;;10.69;100.00;99278.13;5080239;27;19950;-73
2023/10/27 01:09:16;;;;;;;;;;;;;;;10.74;100.00;99267.91;5098188;27;19919;-73
2023/10/27 01:11:41;;;;;;;;;;;;;;;10.63;100.00;99274.19;5097879;27;19920;-72
2023/10/27 01:14:06;;;;;;;;;;;;;;;10.68;100.00;99264.94;5109773;27;20022;-73
2023/10/27 01:16:32;;;;;;;;;;;;;;;10.83;100.00;99267.06;5078407;27;20437;-73
2023/10/27 01:18:57;;;;;;;;;;;;;;;10.62;100.00;99271.66;5092835;27;20057;-73
2023/10/27 01:21:22;;;;;;;;;;;;;;;10.68;100.00;99276.44;5079101;27;19939;-73
2023/10/27 01:23:47;;;;;;;;;;;;;;;10.61;100.00;99278.00;5094388;27;19919;-73
2023/10/27 01:26:13;;;;;;;;;;;;;;;10.52;100.00;99271.63;5101153;27;19924;-73
2023/10/27 01:28:38;;;;;;;;;;;;;;;10.59;100.00;99277.25;5097741;27;19977;-73
2023/10/27 01:31:04;;;;;;;;;;;;;;;10.53;100.00;99285.81;5103765;27;20405;-72
2023/10/27 01:33:29;;;;;;;;;;;;;;;10.65;100.00;99283.91;5094120;27;19924;-73
2023/10/27 01:35:54;;;;;;;;;;;;;;;10.69;100.00;99283.47;5079750;27;20693;-73
2023/10/27 01:38:20;;;;;;;;;;;;;;;10.63;100.00;99274.19;5098742;27;20388;-73
2023/10/27 01:40:46;;;;;;;;;;;;;;;10.69;100.00;99279.94;5105532;27;19920;-72
2023/10/27 01:43:11;;;;;;;;;;;;;;;10.68;100.00;99281.78;5103206;27;19931;-73
2023/10/27 01:45:37;;;;;;;;;;;;;;;10.61;100.00;99284.16;5081788;27;19975;-73
2023/10/27 01:48:02;;;;;;;;;;;;;;;10.70;100.00;99269.19;5087240;27;19924;-73
2023/10/27 01:50:27;;;;;;;;;;;;;;;10.56;100.00;99273.06;5092117;27;20659;-73
2023/10/27 01:52:53;;;;;;;;;;;;;;;10.56;100.00;99264.22;5113356;27;20103;-73
2023/10/27 01:55:18;;;;;;;;;;;;;;;10.62;100.00;99267.19;5083091;27;20015;-73
2023/10/27 01:57:44;;;;;;;;;;;;;;;10.64;100.00;99269.69;5097467;27;19931;-73
2023/10/27 02:00:09;;;;;;;;;;;;;;;10.52;100.00;99268.97;5098989;27;19924;-73
2023/10/27 02:02:38;;;;;;;;;;;;;;;10.63;100.00;99274.19;5097419;27;19927;-72
2023/10/27 02:05:07;;;;;;;;;;;;;;;10.81;100.00;99273.53;5081755;27;19923;-72
2023/10/27 02:07:33;;;;;;;;;;;;;;;10.71;100.00;99270.00;5099247;27;20788;-73
2023/10/27 02:09:59;;;;;;;;;;;;;;;10.73;100.00;99266.22;5098353;27;19920;-73
2023/10/27 02:12:28;;;;;;;;;;;;;;;10.74;100.00;99269.72;5098608;27;19920;-73
2023/10/27 02:14:53;;;;;;;;;;;;;;;10.79;100.00;99259.50;5088674;27;19924;-73
2023/10/27 02:17:19;;;;;;;;;;;;;;;10.89;100.00;99268.34;5096621;27;20729;-73
2023/10/27 02:19:44;;;;;;;;;;;;;;;10.79;100.00;99255.03;5098176;27;20422;-73
2023/10/27 02:22:10;;;;;;;;;;;;;;;10.91;100.00;99261.06;5070196;27;19920;-73
2023/10/27 02:24:39;;;;;;;;;;;;;;;10.96;100.00;99250.00;5099043;27;19924;-73
2023/10/27 02:27:04;;;;;;;;;;;;;;;10.91;100.00;99254.91;5095784;27;19924;-73
2023/10/27 02:29:30;;;;;;;;;;;;;;;10.73;100.00;99250.22;5099688;27;19928;-72
2023/10/27 02:31:55;;;;;;;;;;;;;;;10.76;100.00;99252.63;5078543;27;20710;-72
2023/10/27 02:34:20;;;;;;;;;;;;;;;10.79;100.00;99251.50;5099060;27;19936;-73
2023/10/27 02:36:46;;;;;;;;;;;;;;;10.91;100.00;99249.56;5094252;27;20496;-73
2023/10/27 02:39:11;;;;;;;;;;;;;;;10.88;100.00;99248.84;5081203;27;19920;-73
2023/10/27 02:41:37;;;;;;;;;;;;;;;10.79;100.00;99251.50;5113360;27;20517;-73
2023/10/27 02:44:03;;;;;;;;;;;;;;;10.89;100.00;99253.22;5092148;27;20647;-73
2023/10/27 02:46:28;;;;;;;;;;;;;;;10.77;100.00;99251.63;5080564;27;20778;-72
2023/10/27 02:48:53;;;;;;;;;;;;;;;10.84;100.00;99250.13;5080535;27;19919;-73
2023/10/27 02:51:19;;;;;;;;;;;;;;;10.91;100.00;99249.56;5081026;27;20371;-73
2023/10/27 02:53:44;;;;;;;;;;;;;;;10.83;100.00;99252.91;5078451;27;20391;-73
2023/10/27 02:56:10;;;;;;;;;;;;;;;10.84;100.00;99242.13;5075908;27;19990;-71
2023/10/27 02:58:36;;;;;;;;;;;;;;;10.89;100.00;99247.88;5095056;27;19920;-73
2023/10/27 03:01:14;;;;;;;;;;;;;;;10.84;100.00;99251.91;5102438;27;19920;-73
2023/10/27 03:03:40;;;;;;;;;;;;;;;10.93;100.00;99239.59;5093735;27;19928;-73
2023/10/27 03:06:05;;;;;;;;;;;;;;;10.82;100.00;99238.72;5086458;27;19990;-73
2023/10/27 03:08:32;;;;;;;;;;;;;;;10.94;100.00;99242.09;5099329;27;19924;-72
2023/10/27 03:10:57;;;;;;;;;;;;;;;10.88;100.00;99232.84;5094109;27;20005;-72
2023/10/27 03:13:23;;;;;;;;;;;;;;;10.93;100.00;99242.25;5072880;27;20590;-73
2023/10/27 03:15:48;;;;;;;;;;;;;;;10.91;100.00;99236.22;5098490;27;19924;-73
2023/10/27 03:18:14;;;;;;;;;;;;;;;10.93;100.00;99226.25;5096612;27;20031;-73
2023/10/27 03:20:39;;;;;;;;;;;;;;;10.91;100.00;99226.41;5078507;27;20000;-72
2023/10/27 03:23:05;;;;;;;;;;;;;;;10.97;100.00;99231.16;5094851;27;20742;-72
2023/10/27 03:25:30;;;;;;;;;;;;;;;10.96;100.00;99221.50;5083699;27;19920;-73
2023/10/27 03:27:56;;;;;;;;;;;;;;;10.98;100.00;99227.50;5098400;27;19924;-73
2023/10/27 03:30:23;;;;;;;;;;;;;;;10.93;100.00;99211.09;5099833;27;19951;-72
2023/10/27 03:32:48;;;;;;;;;;;;;;;10.91;100.00;99221.06;5079513;27;20197;-73
2023/10/27 03:35:15;;;;;;;;;;;;;;;10.79;100.00;99217.69;5110029;27;19971;-73
2023/10/27 03:37:40;;;;;;;;;;;;;;;10.78;100.00;99221.31;5109800;27;19924;-73
2023/10/27 03:40:06;;;;;;;;;;;;;;;10.82;100.00;99213.91;5098426;27;19924;-72
2023/10/27 03:42:31;;;;;;;;;;;;;;;10.79;100.00;99222.16;5075425;27;20007;-73
2023/10/27 03:44:57;;;;;;;;;;;;;;;10.83;100.00;99219.09;5093128;27;19924;-73
2023/10/27 03:47:22;;;;;;;;;;;;;;;10.89;100.00;99223.88;5105366;27;19924;-73
2023/10/27 03:49:47;;;;;;;;;;;;;;;10.90;100.00;99224.72;5097961;27;19924;-72
2023/10/27 03:52:13;;;;;;;;;;;;;;;10.87;100.00;99220.50;5093613;27;19924;-72
2023/10/27 03:54:38;;;;;;;;;;;;;;;10.85;100.00;99221.63;5090884;27;19924;-73
2023/10/27 03:57:04;;;;;;;;;;;;;;;10.92;100.00;99211.25;5097145;27;19920;-72
2023/10/27 03:59:29;;;;;;;;;;;;;;;10.99;100.00;99215.03;5086025;27;19924;-73
2023/10/27 04:01:54;;;;;;;;;;;;;;;10.82;100.00;99221.91;5097464;27;19924;-73
2023/10/27 04:04:20;;;;;;;;;;;;;;;10.94;100.00;99211.94;5092642;27;19920;-73
2023/10/27 04:06:45;;;;;;;;;;;;;;;10.79;100.00;99216.81;5091818;27;20667;-72
2023/10/27 04:09:11;;;;;;;;;;;;;;;10.85;100.00;99208.28;5096021;27;20651;-73
2023/10/27 04:11:36;;;;;;;;;;;;;;;10.92;100.00;99208.56;5091697;27;19928;-72
2023/10/27 04:14:02;;;;;;;;;;;;;;;10.94;100.00;99211.94;5095614;27;20025;-73
2023/10/27 04:16:29;;;;;;;;;;;;;;;10.78;100.00;99210.66;5098678;27;19993;-72
2023/10/27 04:18:55;;;;;;;;;;;;;;;10.75;100.00;99207.44;5085192;27;19920;-72
2023/10/27 04:21:20;;;;;;;;;;;;;;;10.75;100.00;99213.63;5093172;27;19932;-73
2023/10/27 04:23:47;;;;;;;;;;;;;;;10.75;100.00;99216.28;5095819;27;19919;-73
2023/10/27 04:26:13;;;;;;;;;;;;;;;10.85;100.00;99210.97;5112760;27;19924;-72
2023/10/27 04:28:38;;;;;;;;;;;;;;;10.86;100.00;99215.31;5096940;27;19955;-73
2023/10/27 04:31:05;;;;;;;;;;;;;;;10.90;100.00;99216.72;5090894;27;19930;-72
2023/10/27 04:33:31;;;;;;;;;;;;;;;10.79;100.00;99211.50;5085254;27;20522;-73
2023/10/27 04:35:57;;;;;;;;;;;;;;;10.73;100.00;99204.91;5093438;27;19946;-72
2023/10/27 04:38:22;;;;;;;;;;;;;;;10.72;100.00;99218.38;5089131;27;20865;-73
2023/10/27 04:40:51;;;;;;;;;;;;;;;10.82;100.00;99217.41;5103020;27;20455;-72
2023/10/27 04:43:17;;;;;;;;;;;;;;;10.71;100.00;99216.69;5108461;27;19942;-72
2023/10/27 04:45:45;;;;;;;;;;;;;;;10.72;100.00;99216.56;5100325;27;19920;-72
2023/10/27 04:48:10;;;;;;;;;;;;;;;10.69;100.00;99216.81;5101164;27;19931;-72
2023/10/27 04:50:36;;;;;;;;;;;;;;;10.72;100.00;99221.88;5097415;27;19970;-73
2023/10/27 04:53:02;;;;;;;;;;;;;;;10.76;100.00;99214.47;5095105;27;20736;-73
2023/10/27 04:55:27;;;;;;;;;;;;;;;10.68;100.00;99217.81;5095907;27;19920;-73
2023/10/27 04:57:52;;;;;;;;;;;;;;;10.75;100.00;99215.44;5076012;27;20804;-73
2023/10/27 05:00:18;;;;;;;;;;;;;;;10.73;100.00;99212.06;5084849;27;20017;-72
2023/10/27 05:02:43;;;;;;;;;;;;;;;10.66;100.00;99216.25;5099749;27;19920;-73
2023/10/27 05:05:09;;;;;;;;;;;;;;;10.72;100.00;99218.38;5080354;27;19927;-72
2023/10/27 05:07:35;;;;;;;;;;;;;;;10.79;100.00;99209.69;5083822;27;20626;-73
2023/10/27 05:10:03;;;;;;;;;;;;;;;10.76;100.00;99212.63;5093113;27;30102;-73
2023/10/27 05:12:28;;;;;;;;;;;;;;;10.80;100.00;99213.22;5094890;27;20046;-73
2023/10/27 05:14:54;;;;;;;;;;;;;;;10.83;100.00;99211.09;5073201;27;20393;-73
2023/10/27 05:17:19;;;;;;;;;;;;;;;10.85;100.00;99208.28;5072978;27;19927;-73
2023/10/27 05:19:45;;;;;;;;;;;;;;;10.86;100.00;99204.66;5097078;27;19936;-73
2023/10/27 05:22:10;;;;;;;;;;;;;;;10.83;100.00;99197.75;5109872;27;19927;-73
2023/10/27 05:24:35;;;;;;;;;;;;;;;10.82;100.00;99204.06;5112665;27;19924;-73
2023/10/27 05:27:03;;;;;;;;;;;;;;;10.80;100.00;99194.53;5095707;27;19931;-73
2023/10/27 05:29:29;;;;;;;;;;;;;;;10.78;100.00;99200.00;5109784;27;19990;-73
2023/10/27 05:31:54;;;;;;;;;;;;;;;10.90;100.00;99200.72;5080946;27;19924;-73
2023/10/27 05:34:19;;;;;;;;;;;;;;;10.79;100.00;99208.81;5107006;27;19920;-73
2023/10/27 05:36:45;;;;;;;;;;;;;;;10.78;100.00;99197.31;5094973;27;19969;-73
2023/10/27 05:39:16;;;;;;;;;;;;;;;10.81;100.00;99206.88;5093245;27;19923;-73
2023/10/27 05:41:48;;;;;;;;;;;;;;;10.83;100.00;99205.75;5090139;27;19927;-73
2023/10/27 05:44:14;;;;;;;;;;;;;;;10.82;100.00;99203.22;5096223;27;20019;-73
2023/10/27 05:46:39;;;;;;;;;;;;;;;10.90;100.00;99208.72;5099551;27;19920;-73
2023/10/27 05:49:08;;;;;;;;;;;;;;;10.86;100.00;99201.97;5096194;27;19928;-71
2023/10/27 05:51:34;;;;;;;;;;;;;;;10.91;100.00;99201.56;5088372;27;19927;-73
2023/10/27 05:54:01;;;;;;;;;;;;;;;10.81;100.00;99204.22;5094424;27;19927;-73
2023/10/27 05:56:27;;;;;;;;;;;;;;;10.82;100.00;99211.22;5092815;27;19924;-73
2023/10/27 05:58:52;;;;;;;;;;;;;;;10.92;100.00;99209.41;5100652;27;19976;-74
2023/10/27 06:01:19;;;;;;;;;;;;;;;10.94;100.00;99204.78;5094695;27;19920;-73
2023/10/27 06:03:44;;;;;;;;;;;;;;;10.93;100.00;99200.41;5100117;27;20022;-73
2023/10/27 06:06:10;;;;;;;;;;;;;;;10.78;100.00;99202.66;5090670;27;20081;-73
2023/10/27 06:08:40;;;;;;;;;;;;;;;10.77;100.00;99192.97;5094614;27;20708;-73
2023/10/27 06:11:06;;;;;;;;;;;;;;;10.72;100.00;99203.22;5100746;27;19920;-73
2023/10/27 06:13:34;;;;;;;;;;;;;;;10.69;100.00;99202.66;5100192;27;20006;-73
2023/10/27 06:15:59;;;;;;;;;;;;;;;10.65;100.00;99210.09;5100060;27;20021;-73
2023/10/27 06:18:25;;;;;;;;;;;;;;;10.59;100.00;99206.16;5101974;27;20343;-73
2023/10/27 06:20:50;;;;;;;;;;;;;;;10.59;100.00;99210.63;5104179;27;20386;-73
2023/10/27 06:23:15;;;;;;;;;;;;;;;10.55;100.00;99215.41;5096302;27;20618;-73
2023/10/27 06:25:41;;;;;;;;;;;;;;;10.61;100.00;99216.69;5100253;27;20420;-73
2023/10/27 06:28:09;;;;;;;;;;;;;;;10.61;100.00;99216.69;5099182;27;19935;-73
2023/10/27 06:30:34;;;;;;;;;;;;;;;10.64;100.00;99219.06;5097435;27;19977;-73
2023/10/27 06:32:59;;;;;;;;;;;;;;;10.64;100.00;99219.06;5104332;27;19926;-73
2023/10/27 06:35:25;;;;;;;;;;;;;;;10.66;100.00;99213.59;5094030;27;19969;-73
2023/10/27 06:37:50;;;;;;;;;;;;;;;10.72;100.00;99215.72;5101826;27;19968;-75
2023/10/27 06:40:18;;;;;;;;;;;;;;;10.77;100.00;99214.31;5103546;27;20438;-75
2023/10/27 06:42:44;;;;;;;;;;;;;;;10.77;100.00;99211.66;5093369;27;19963;-75
2023/10/27 06:45:09;;;;;;;;;;;;;;;10.69;100.00;99215.97;5096590;27;19920;-75
2023/10/27 06:47:35;;;;;;;;;;;;;;;10.69;100.00;99205.31;5074940;27;19928;-75
2023/10/27 06:50:04;;;;;;;;;;;;;;;10.68;100.00;99215.13;5104337;27;19924;-75
2023/10/27 06:52:31;;;;;;;;;;;;;;;10.75;100.00;99216.28;5102879;27;19931;-75
2023/10/27 06:54:57;;;;;;;;;;;;;;;10.82;100.00;99212.06;5087567;27;19924;-75
2023/10/27 06:57:22;;;;;;;;;;;;;;;10.79;100.00;99208.81;5098443;27;19931;-75
2023/10/27 06:59:47;;;;;;;;;;;;;;;10.71;100.00;99219.38;5095650;27;19926;-75
2023/10/27 07:02:16;;;;;;;;;;;;;;;10.69;100.00;99215.97;5080285;27;19920;-75
2023/10/27 07:04:41;;;;;;;;;;;;;;;10.77;100.00;99216.97;5079449;27;20851;-75
2023/10/27 07:07:07;;;;;;;;;;;;;;;10.78;100.00;99213.31;5082922;27;19932;-75
2023/10/27 07:09:32;;;;;;;;;;;;;;;10.81;100.00;99218.38;5094437;27;19978;-75
2023/10/27 07:12:00;;;;;;;;;;;;;;;10.78;100.00;99209.81;5103959;27;19920;-73
2023/10/27 07:14:28;;;;;;;;;;;;;;;10.74;100.00;99213.72;5107353;27;19927;-75
2023/10/27 07:16:54;;;;;;;;;;;;;;;10.80;100.00;99221.22;5101055;27;19995;-75
2023/10/27 07:19:20;;;;;;;;;;;;;;;10.83;100.00;99207.56;5111490;27;19919;-75
2023/10/27 07:21:46;;;;;;;;;;;;;;;10.73;100.00;99214.72;5084985;27;20019;-75
2023/10/27 07:24:11;;;;;;;;;;;;;;;10.90;100.00;99222.06;5084656;27;19924;-75
2023/10/27 07:26:36;;;;;;;;;;;;;;;10.79;100.00;99222.16;5097551;27;19924;-75
2023/10/27 07:29:02;;;;;;;;;;;;;;;10.77;100.00;99208.13;5095407;27;19924;-75
2023/10/27 07:31:27;;;;;;;;;;;;;;;10.75;100.00;99210.13;5100477;27;19920;-75
2023/10/27 07:33:53;;;;;;;;;;;;;;;10.88;100.00;99218.66;5097016;27;20824;-75
2023/10/27 07:36:18;;;;;;;;;;;;;;;10.84;100.00;99212.78;5095960;27;20369;-73
2023/10/27 07:38:44;;;;;;;;;;;;;;;10.81;100.00;99222.88;5097997;27;20658;-75
2023/10/27 07:41:09;;;;;;;;;;;;;;;10.84;100.00;99225.25;5097919;27;19920;-73
2023/10/27 07:43:37;;;;;;;;;;;;;;;10.94;100.00;99220.78;5094324;27;19920;-73
2023/10/27 07:46:08;;;;;;;;;;;;;;;10.91;100.00;99225.56;5110572;27;19924;-75
2023/10/27 07:48:34;;;;;;;;;;;;;;;10.97;100.00;99223.16;5097437;27;19978;-75
2023/10/27 07:50:59;;;;;;;;;;;;;;;10.94;100.00;99217.25;5099599;27;19920;-75
2023/10/27 07:53:26;;;;;;;;;;;;;;;11.02;100.00;99220.94;5101337;27;20240;-75
2023/10/27 07:55:52;;;;;;;;;;;;;;;11.06;100.00;99216.16;5097193;27;19927;-75
2023/10/27 07:58:17;;;;;;;;;;;;;;;10.97;100.00;99215.16;5101090;27;19927;-75
2023/10/27 08:00:43;;;;;;;;;;;;;;;11.00;100.00;99224.72;5094293;27;19920;-75
2023/10/27 08:03:08;;;;;;;;;;;;;;;11.03;100.00;99224.44;5091809;27;19927;-75
2023/10/27 08:05:34;;;;;;;;;;;;;;;10.89;100.00;99220.34;5099827;27;19924;-75
2023/10/27 08:07:59;;;;;;;;;;;;;;;10.81;100.00;99228.22;5082321;27;19924;-75
2023/10/27 08:10:24;;;;;;;;;;;;;;;10.83;100.00;99231.56;5080901;27;19919;-75
2023/10/27 08:12:50;;;;;;;;;;;;;;;11.00;100.00;99230.91;5095863;27;20126;-75
2023/10/27 08:15:16;;;;;;;;;;;;;;;10.98;100.00;99240.00;5083238;27;19928;-75
2023/10/27 08:17:41;;;;;;;;;;;;;;;10.84;100.00;99238.59;5076258;27;19934;-75
2023/10/27 08:20:07;;;;;;;;;;;;;;;10.69;100.00;99242.63;5096207;27;19924;-75
2023/10/27 08:22:32;;;;;;;;;;;;;;;10.89;100.00;99239.00;5093614;27;19928;-75
2023/10/27 08:24:58;;;;;;;;;;;;;;;10.79;100.00;99246.16;5074748;27;19924;-75
2023/10/27 08:27:24;;;;;;;;;;;;;;;10.84;100.00;99251.91;5097606;27;19924;-74
2023/10/27 08:29:54;;;;;;;;;;;;;;;10.79;100.00;99260.34;5096012;27;20022;-75
2023/10/27 08:32:19;;;;;;;;;;;;;;;10.71;100.00;99254.03;5090808;27;20463;-74
2023/10/27 08:34:44;;;;;;;;;;;;;;;10.93;100.00;99260.91;5093163;27;19924;-75
2023/10/27 08:37:10;;;;;;;;;;;;;;;10.79;100.00;99254.16;5080615;27;19926;-75
2023/10/27 08:39:42;;;;;;;;;;;;;;;10.87;100.00;99257.00;5108170;27;20599;-75
2023/10/27 08:42:07;;;;;;;;;;;;;;;11.01;100.00;99251.25;5088102;27;20048;-75
2023/10/27 08:44:33;;;;;;;;;;;;;;;11.08;100.00;99249.69;5085305;27;20542;-75
2023/10/27 08:47:03;;;;;;;;;;;;;;;11.12;100.00;99242.28;5087430;27;19920;-75
2023/10/27 08:49:28;;;;;;;;;;;;;;;11.21;100.00;99235.25;5083214;27;19926;-75
2023/10/27 08:51:55;;;;;;;;;;;;;;;11.26;100.00;99236.53;5086390;27;19927;-75
2023/10/27 08:54:21;;;;;;;;;;;;;;;11.37;100.00;99231.03;5095234;27;19932;-75
2023/10/27 08:56:47;;;;;;;;;;;;;;;11.33;100.00;99231.44;5074338;27;20514;-75
2023/10/27 08:59:16;;;;;;;;;;;;;;;11.34;100.00;99225.13;5064355;27;19930;-75
2023/10/27 09:01:43;;;;;;;;;;;;;;;11.47;100.00;99225.69;5093095;27;19920;-75
2023/10/27 09:04:10;;;;;;;;;;;;;;;11.51;100.00;99221.75;5097774;27;20039;-75
2023/10/27 09:06:39;;;;;;;;;;;;;;;11.24;100.00;99225.13;5108857;27;19924;-75
2023/10/27 09:09:11;;;;;;;;;;;;;;;11.40;100.00;99230.75;5104765;27;19924;-75
2023/10/27 09:11:41;;;;;;;;;;;;;;;11.37;100.00;99231.03;5079828;27;20214;-75
2023/10/27 09:14:23;;;;;;;;;;;;;;;11.49;100.00;99228.19;5087159;27;19931;-75
2023/10/27 09:16:48;;;;;;;;;;;;;;;11.56;100.00;99224.00;5074535;27;20507;-75
2023/10/27 09:19:20;;;;;;;;;;;;;;;11.67;100.00;99224.66;5093372;27;19931;-75
2023/10/27 09:21:46;;;;;;;;;;;;;;;11.69;100.00;99213.81;5092510;27;19935;-75
2023/10/27 09:24:20;;;;;;;;;;;;;;;11.72;100.00;99212.69;5106953;27;19955;-75
2023/10/27 09:26:48;;;;;;;;;;;;;;;11.60;100.00;99202.19;5095509;27;20038;-75
2023/10/27 09:29:16;;;;;;;;;;;;;;;11.67;100.00;99203.28;5071261;27;20783;-75
2023/10/27 09:31:45;;;;;;;;;;;;;;;11.61;100.00;99203.88;5105543;27;19924;-75
2023/10/27 09:34:23;;;;;;;;;;;;;;;11.67;100.00;99210.47;5073263;27;19924;-75
2023/10/27 09:36:57;;;;;;;;;;;;;;;11.63;100.00;99209.91;5095327;27;20135;-75
2023/10/27 09:39:23;;;;;;;;;;;;;;;11.56;100.00;99215.97;5081192;27;19924;-75
2023/10/27 09:42:02;;;;;;;;;;;;;;;11.59;100.00;99219.19;5084742;27;20017;-75
2023/10/27 09:44:40;;;;;;;;;;;;;;;11.60;100.00;99218.22;5071971;27;20466;-75
2023/10/27 09:47:31;;;;;;;;;;;;;;;11.65;100.00;99221.28;5095470;27;20918;-75
2023/10/27 09:49:59;;;;;;;;;;;;;;;11.64;100.00;99221.41;5092178;27;19931;-75
2023/10/27 09:52:27;;;;;;;;;;;;;;;11.68;100.00;99218.31;5079515;27;20034;-75
2023/10/27 09:54:56;;;;;;;;;;;;;;;11.75;100.00;99217.75;5108238;27;20294;-76
2023/10/27 09:57:22;;;;;;;;;;;;;;;11.76;100.00;99222.13;5091936;27;19920;-75
2023/10/27 09:59:49;;;;;;;;;;;;;;;11.80;100.00;99210.16;5093629;27;20001;-74
2023/10/27 10:02:15;;;;;;;;;;;;;;;11.85;100.00;99211.44;5104491;27;20393;-75
2023/10/27 10:04:50;;;;;;;;;;;;;;;11.76;100.00;99214.94;5096376;27;20406;-75
2023/10/27 10:07:28;;;;;;;;;;;;;;;11.83;100.00;99218.72;5096919;27;19947;-75
2023/10/27 10:09:54;;;;;;;;;;;;;;;11.94;100.00;99225.72;5094705;27;19931;-75
2023/10/27 10:12:19;;;;;;;;;;;;;;;12.11;100.00;99224.13;5101138;27;20227;-75
2023/10/27 10:14:46;;;;;;;;;;;;;;;12.08;100.00;99227.94;5097891;27;19924;-75
2023/10/27 10:17:11;;;;;;;;;;;;;;;12.23;100.00;99232.81;5098312;27;20040;-74
2023/10/27 10:19:50;;;;;;;;;;;;;;;12.31;100.00;99215.03;5107941;27;20343;-75
2023/10/27 10:22:34;;;;;;;;;;;;;;;12.44;100.00;99215.50;5083240;27;20071;-75
2023/10/27 10:25:18;;;;;;;;;;;;;;;12.34;100.00;99212.06;5104099;27;20009;-75
2023/10/27 10:28:02;;;;;;;;;;;;;;;12.37;100.00;99203.75;5097257;27;19924;-72
2023/10/27 10:30:27;;;;;;;;;;;;;;;12.38;100.00;99200.09;5080988;27;19920;-72
2023/10/27 10:33:15;;;;;;;;;;;;;;;12.43;100.00;99211.16;5079518;27;19920;-72
2023/10/27 10:35:44;;;;;;;;;;;;;;;12.51;100.00;99198.91;5085438;27;20074;-72
2023/10/27 10:38:25;;;;;;;;;;;;;;;12.39;100.00;99195.56;5103658;27;20017;-72
2023/10/27 10:40:50;;;;;;;;;;;;;;;12.48;100.00;99194.69;5099999;27;19928;-75
2023/10/27 10:43:18;;;;;;;;;;;;;;;12.40;100.00;99195.44;5070498;27;19924;-75
2023/10/27 10:45:44;;;;;;;;;;;;;;;12.44;100.00;99196.81;5106074;27;20027;-75
2023/10/27 10:48:09;;;;;;;;;;;;;;;12.42;100.00;99190.78;5095674;27;20022;-75
2023/10/27 10:50:35;;;;;;;;;;;;;;;12.37;100.00;99202.91;5096011;27;20804;-72
2023/10/27 10:53:21;;;;;;;;;;;;;;;12.36;100.00;99209.25;5098300;27;19927;-72
2023/10/27 10:55:47;;;;;;;;;;;;;;;12.44;100.00;99212.84;5097976;27;19928;-72
2023/10/27 10:58:21;;;;;;;;;;;;;;;12.57;100.00;99217.00;5097361;27;20081;-74
2023/10/27 11:00:48;;;;;;;;;;;;;;;12.62;100.00;99207.53;5098495;27;20389;-73
2023/10/27 11:03:13;;;;;;;;;;;;;;;12.62;100.00;99204.88;5097060;27;19955;-74
2023/10/27 11:05:42;;;;;;;;;;;;;;;12.65;100.00;99201.91;5098572;27;19924;-73
2023/10/27 11:08:07;;;;;;;;;;;;;;;12.50;100.00;99192.72;5093155;27;19935;-73
2023/10/27 11:10:33;;;;;;;;;;;;;;;12.55;100.00;99198.47;5098199;27;19924;-73
2023/10/27 11:13:05;;;;;;;;;;;;;;;12.54;100.00;99198.59;5076382;27;19942;-73
2023/10/27 11:15:40;;;;;;;;;;;;;;;12.39;100.00;99193.75;5098591;27;19963;-74
2023/10/27 11:18:06;;;;;;;;;;;;;;;12.44;100.00;99190.63;5069676;27;19920;-73
2023/10/27 11:20:34;;;;;;;;;;;;;;;12.42;100.00;99195.28;5097799;27;19920;-73
2023/10/27 11:23:07;;;;;;;;;;;;;;;12.21;100.00;99202.72;5082572;27;19920;-73
2023/10/27 11:25:32;;;;;;;;;;;;;;;12.26;100.00;99200.44;5098944;27;19971;-73
2023/10/27 11:28:16;;;;;;;;;;;;;;;12.25;100.00;99212.97;5102903;27;19931;-73
2023/10/27 11:30:42;;;;;;;;;;;;;;;12.26;100.00;99219.16;5097204;27;19927;-73
2023/10/27 11:33:08;;;;;;;;;;;;;;;12.19;100.00;99218.88;5098298;27;20215;-73
2023/10/27 11:35:34;;;;;;;;;;;;;;;12.19;100.00;99219.72;5096368;27;20031;-73
2023/10/27 11:38:02;;;;;;;;;;;;;;;12.25;100.00;99222.78;5105916;27;19927;-73
2023/10/27 11:40:27;;;;;;;;;;;;;;;12.22;100.00;99225.78;5099318;27;20459;-73
2023/10/27 11:42:53;;;;;;;;;;;;;;;12.11;100.00;99219.63;5079170;27;20027;-73
2023/10/27 11:45:18;;;;;;;;;;;;;;;11.99;100.00;99222.63;5119879;27;19938;-73
2023/10/27 11:47:44;;;;;;;;;;;;;;;12.30;100.00;99233.88;5074969;27;19928;-73
2023/10/27 11:50:09;;;;;;;;;;;;;;;12.49;100.00;99241.81;5105258;27;19923;-73
2023/10/27 11:52:34;;;;;;;;;;;;;;;12.50;100.00;99234.63;5099577;27;19920;-73
2023/10/27 11:55:01;;;;;;;;;;;;;;;12.65;100.00;99225.09;5090776;27;20801;-73
2023/10/27 11:57:26;;;;;;;;;;;;;;;12.84;100.00;99214.28;5093446;27;19920;-73
2023/10/27 11:59:51;;;;;;;;;;;;;;;12.94;100.00;99206.19;5102014;27;20062;-73
2023/10/27 12:02:18;;;;;;;;;;;;;;;12.94;100.00;99212.38;5093851;27;20710;-73
2023/10/27 12:04:43;;;;;;;;;;;;;;;13.03;100.00;99213.31;5077246;27;19924;-74
2023/10/27 12:07:11;;;;;;;;;;;;;;;13.08;100.00;99210.16;5092390;27;19928;-73
2023/10/27 12:09:37;;;;;;;;;;;;;;;13.12;100.00;99214.22;5091511;27;19920;-73
2023/10/27 12:12:05;;;;;;;;;;;;;;;13.15;100.00;99203.19;5097611;27;19924;-73
2023/10/27 12:14:31;;;;;;;;;;;;;;;13.25;100.00;99208.50;5074716;27;19924;-73
2023/10/27 12:16:57;;;;;;;;;;;;;;;13.28;100.00;99200.16;5097324;27;19924;-73
2023/10/27 12:19:22;;;;;;;;;;;;;;;13.25;100.00;99192.44;5098779;27;20783;-74
2023/10/27 12:21:48;;;;;;;;;;;;;;;13.21;100.00;99194.56;5091849;27;19924;-74
2023/10/27 12:24:16;;;;;;;;;;;;;;;13.27;100.00;99195.81;5100826;27;20468;-74
2023/10/27 12:26:43;;;;;;;;;;;;;;;13.26;100.00;99199.50;5098719;27;19927;-73
2023/10/27 12:29:10;;;;;;;;;;;;;;;13.33;100.00;99193.34;5096326;27;20002;-73
2023/10/27 12:31:35;;;;;;;;;;;;;;;13.31;100.00;99197.19;5101951;27;19924;-72
2023/10/27 12:34:04;;;;;;;;;;;;;;;13.34;100.00;99191.50;5088506;27;19924;-73